Terminal Aerodrome Forecast
Issued by NWS Dodge City, KS

Home | Current Version | Previous Version | Text Only | Print | Product List | Glossary On
Versions: 1 2 3 4 5 6 7 8 9 10 11 12 13 14 15 16 17 18 19 20 21 22 23 24 25 26 27 28 29 30 31 32 33 34 35 36 37 38 39 40 41
000
FTUS43 KDDC 180520
TAFDDC
TAF
KDDC 180520Z 1806/1906 15012KT P6SM SKC
     FM180900 18022G31KT P6SM FEW250 WS020/20050KT
     FM181200 19023G31KT P6SM BKN250
     FM181900 20030G45KT P6SM FEW250
     FM190100 20017KT P6SM FEW250
     FM190200 19018G26KT P6SM FEW250 WS020/22045KT=

USA.gov is the U.S. government's official web portal to all federal, state and local government web resources and services.